createdAt,value
2018-11-02T00:00:47.570Z,66.70
2018-11-02T00:03:15.249Z,61.27
2018-11-02T00:05:43.005Z,68.07
2018-11-02T00:08:10.677Z,63.77
2018-11-02T00:10:38.617Z,64.83
2018-11-02T00:13:06.334Z,64.00
2018-11-02T00:15:34.104Z,59.03
2018-11-02T00:18:01.781Z,64.20
2018-11-02T00:20:29.510Z,64.70
2018-11-02T00:22:57.197Z,64.30
2018-11-02T00:25:24.870Z,61.17
2018-11-02T00:27:52.626Z,64.35
2018-11-02T00:30:20.306Z,57.50
2018-11-02T00:32:47.996Z,58.57
2018-11-02T00:35:15.734Z,55.87
2018-11-02T00:37:43.410Z,64.80
2018-11-02T00:40:11.084Z,56.03
2018-11-02T00:42:39.385Z,58.63
2018-11-02T00:45:08.860Z,61.90
2018-11-02T00:47:36.548Z,58.20
2018-11-02T00:50:05.105Z,57.83
2018-11-02T00:52:32.778Z,67.13
2018-11-02T00:55:00.454Z,63.10
2018-11-02T00:57:28.186Z,61.23
2018-11-02T00:59:55.858Z,60.27
2018-11-02T01:02:23.541Z,65.80
2018-11-02T01:04:51.253Z,62.03
2018-11-02T01:07:18.939Z,59.63
2018-11-02T01:09:46.682Z,62.10
2018-11-02T01:12:14.546Z,59.57
2018-11-02T01:14:42.262Z,62.93
2018-11-02T01:17:10.028Z,63.77
2018-11-02T01:19:37.814Z,67.47
2018-11-02T01:22:06.025Z,68.30
2018-11-02T01:24:33.909Z,59.07
2018-11-02T01:27:01.758Z,57.70
2018-11-02T01:29:29.747Z,62.07
2018-11-02T01:31:57.681Z,57.67
2018-11-02T01:34:25.590Z,57.90
2018-11-02T01:36:53.320Z,55.27
2018-11-02T01:39:21.062Z,52.53
2018-11-02T01:41:48.889Z,56.70
2018-11-02T01:44:16.649Z,61.70
2018-11-02T01:46:44.351Z,61.87
2018-11-02T01:49:12.089Z,57.47
2018-11-02T01:51:39.777Z,58.33
2018-11-02T01:54:07.491Z,59.53
2018-11-02T01:56:35.270Z,58.80
2018-11-02T01:59:02.961Z,62.57
2018-11-02T02:01:30.693Z,60.50
2018-11-02T02:03:58.414Z,60.86
2018-11-02T02:06:26.128Z,59.27
2018-11-02T02:08:53.793Z,59.97
2018-11-02T02:11:21.520Z,62.17
2018-11-02T02:13:49.194Z,58.67
2018-11-02T02:16:16.990Z,62.47
2018-11-02T02:18:44.830Z,60.87
2018-11-02T02:21:12.578Z,61.40
2018-11-02T02:23:40.345Z,55.67
2018-11-02T02:26:08.174Z,57.60
2018-11-02T02:28:35.905Z,53.57
2018-11-02T02:31:03.701Z,59.97
2018-11-02T02:33:31.502Z,50.80
2018-11-02T02:35:59.209Z,56.90
2018-11-02T02:38:26.914Z,55.77
2018-11-02T02:40:54.662Z,63.53
2018-11-02T02:43:22.444Z,57.10
2018-11-02T02:45:50.150Z,56.90
2018-11-02T02:48:17.925Z,53.70
2018-11-02T02:50:45.657Z,61.67
2018-11-02T02:53:13.477Z,56.00
2018-11-02T02:55:41.243Z,53.87
2018-11-02T02:58:09.014Z,59.53
2018-11-02T03:00:36.797Z,56.87
2018-11-02T03:03:04.913Z,61.07
2018-11-02T03:05:32.676Z,62.03
2018-11-02T03:08:00.386Z,65.60
2018-11-02T03:10:28.213Z,63.87
2018-11-02T03:12:55.963Z,61.17
2018-11-02T03:15:23.734Z,58.33
2018-11-02T03:17:51.505Z,56.47
2018-11-02T03:20:19.247Z,57.47
2018-11-02T03:22:47.019Z,58.30
2018-11-02T03:25:14.889Z,58.47
2018-11-02T03:27:42.600Z,58.20
2018-11-02T03:30:11.398Z,61.50
2018-11-02T03:32:39.172Z,63.23
2018-11-02T03:35:06.996Z,60.87
2018-11-02T03:37:34.678Z,59.93
2018-11-02T03:40:02.452Z,59.17
2018-11-02T03:42:30.193Z,67.27
2018-11-02T03:44:57.954Z,62.10
2018-11-02T03:47:25.762Z,57.97
2018-11-02T03:49:53.540Z,66.60
2018-11-02T03:52:21.259Z,64.07
2018-11-02T03:54:49.027Z,61.30
2018-11-02T03:57:16.743Z,63.83
2018-11-02T03:59:44.512Z,66.80
2018-11-02T04:02:12.259Z,64.53
2018-11-02T04:04:39.998Z,64.77
2018-11-02T04:07:07.742Z,69.50
2018-11-02T04:09:35.598Z,67.23
2018-11-02T04:12:03.343Z,73.37
2018-11-02T04:14:31.090Z,72.77
2018-11-02T04:16:58.886Z,67.73
2018-11-02T04:19:26.635Z,62.13
2018-11-02T04:21:54.343Z,67.73
2018-11-02T04:24:22.113Z,66.97
2018-11-02T04:26:49.847Z,64.03
2018-11-02T04:29:17.603Z,60.67
2018-11-02T04:31:45.416Z,62.07
2018-11-02T04:34:14.020Z,64.37
2018-11-02T04:36:41.774Z,65.63
2018-11-02T04:39:13.647Z,63.30
2018-11-02T04:41:41.410Z,61.17
2018-11-02T04:44:09.830Z,66.63
2018-11-02T04:46:38.186Z,66.73
2018-11-02T04:49:06.409Z,68.33
2018-11-02T04:51:34.123Z,72.57
2018-11-02T04:54:01.943Z,67.20
2018-11-02T04:56:29.771Z,66.17
2018-11-02T04:58:57.526Z,63.83
2018-11-02T05:01:25.291Z,64.27
2018-11-02T05:03:53.077Z,64.27
2018-11-02T05:06:21.071Z,70.87
2018-11-02T05:08:48.907Z,70.10
2018-11-02T05:11:16.753Z,64.33
2018-11-02T05:13:44.556Z,72.18
2018-11-02T05:16:12.670Z,64.87
2018-11-02T05:18:40.415Z,69.57
2018-11-02T05:21:08.658Z,62.97
2018-11-02T05:23:36.864Z,62.07
2018-11-02T05:26:04.679Z,63.43
2018-11-02T05:28:32.923Z,61.73
2018-11-02T05:31:00.692Z,65.47
2018-11-02T05:33:28.487Z,66.63
2018-11-02T05:35:56.599Z,58.47
2018-11-02T05:38:24.378Z,60.47
2018-11-02T05:40:52.239Z,56.77
2018-11-02T05:43:19.964Z,60.37
2018-11-02T05:45:47.727Z,57.60
2018-11-02T05:48:15.483Z,57.27
2018-11-02T05:50:43.223Z,62.77
2018-11-02T05:53:10.963Z,57.53
2018-11-02T05:55:38.792Z,56.30
2018-11-02T05:58:06.518Z,53.10
2018-11-02T06:00:34.367Z,54.30
2018-11-02T06:03:02.139Z,52.10
2018-11-02T06:05:30.263Z,52.23
2018-11-02T06:07:58.060Z,51.00
2018-11-02T06:10:25.836Z,47.40
2018-11-02T06:12:53.620Z,45.40
2018-11-02T06:15:21.369Z,45.57
2018-11-02T06:17:49.114Z,47.97
2018-11-02T06:20:16.894Z,50.03
2018-11-02T06:22:44.610Z,48.87
2018-11-02T06:25:12.308Z,47.23
2018-11-02T06:27:40.031Z,48.90
2018-11-02T06:30:08.867Z,41.60
2018-11-02T06:32:36.646Z,46.00
2018-11-02T06:35:05.059Z,40.50
2018-11-02T06:37:32.820Z,41.27
2018-11-02T06:40:00.560Z,47.33
2018-11-02T06:42:28.286Z,47.73
2018-11-02T06:44:56.198Z,43.30
2018-11-02T06:47:23.919Z,43.43
2018-11-02T06:49:51.660Z,41.17
2018-11-02T06:52:19.588Z,43.13
2018-11-02T06:54:47.364Z,45.03
2018-11-02T06:57:15.159Z,44.03
2018-11-02T06:59:43.120Z,44.63
2018-11-02T07:02:10.736Z,45.00
2018-11-02T07:04:38.621Z,46.60
2018-11-02T07:07:06.436Z,52.03
2018-11-02T07:09:34.181Z,53.70
2018-11-02T07:12:01.935Z,50.47
2018-11-02T07:14:29.774Z,47.07
2018-11-02T07:16:57.527Z,48.90
2018-11-02T07:19:25.257Z,53.57
2018-11-02T07:21:53.026Z,48.43
2018-11-02T07:24:20.823Z,46.50
2018-11-02T07:26:48.638Z,45.27
2018-11-02T07:29:16.443Z,45.53
2018-11-02T07:31:44.204Z,48.23
2018-11-02T07:34:12.054Z,45.63
2018-11-02T07:36:39.818Z,41.40
2018-11-02T07:39:09.307Z,40.57
2018-11-02T07:41:37.088Z,41.40
2018-11-02T07:44:04.923Z,39.90
2018-11-02T07:46:32.731Z,40.90
2018-11-02T07:49:00.490Z,38.00
2018-11-02T07:51:28.322Z,39.07
2018-11-02T07:53:56.458Z,34.03
2018-11-02T07:56:24.237Z,38.70
2018-11-02T07:58:52.058Z,31.10
2018-11-02T08:01:19.802Z,37.40
2018-11-02T08:03:47.515Z,36.87
2018-11-02T08:06:16.324Z,39.50
2018-11-02T08:08:44.062Z,36.67
2018-11-02T08:11:11.810Z,38.80
2018-11-02T08:13:39.635Z,43.50
2018-11-02T08:16:07.362Z,45.93
2018-11-02T08:18:35.111Z,52.03
2018-11-02T08:21:02.952Z,46.53
2018-11-02T08:23:30.700Z,48.20
2018-11-02T08:25:58.448Z,53.23
2018-11-02T08:28:26.232Z,43.90
2018-11-02T08:30:53.965Z,52.00
2018-11-02T08:33:21.791Z,53.97
2018-11-02T08:35:49.592Z,52.17
2018-11-02T08:38:17.275Z,51.40
2018-11-02T08:40:44.955Z,53.13
2018-11-02T08:43:12.669Z,49.27
2018-11-02T08:45:40.364Z,52.23
2018-11-02T08:48:08.054Z,50.63
2018-11-02T08:50:35.770Z,52.13
2018-11-02T08:53:03.623Z,51.40
2018-11-02T08:55:31.315Z,52.50
2018-11-02T08:57:59.167Z,54.53
2018-11-02T09:00:26.818Z,45.83
2018-11-02T09:02:54.499Z,44.50
2018-11-02T09:05:22.277Z,46.37
2018-11-02T09:07:50.056Z,45.23
2018-11-02T09:10:17.823Z,49.40
2018-11-02T09:12:45.671Z,43.47
2018-11-02T09:15:13.439Z,46.33
2018-11-02T09:17:41.197Z,44.03
2018-11-02T09:20:09.059Z,49.57
2018-11-02T09:22:36.884Z,46.33
2018-11-02T09:25:05.953Z,44.67
2018-11-02T09:27:33.824Z,44.50
2018-11-02T09:30:01.526Z,46.00
2018-11-02T09:32:29.205Z,43.63
2018-11-02T09:34:56.955Z,41.07
2018-11-02T09:37:24.798Z,39.27
2018-11-02T09:39:52.514Z,41.43
2018-11-02T09:42:20.323Z,36.27
2018-11-02T09:44:48.144Z,41.53
2018-11-02T09:47:15.932Z,41.57
2018-11-02T09:49:43.752Z,40.70
2018-11-02T09:52:11.557Z,40.50
2018-11-02T09:54:39.247Z,42.00
2018-11-02T09:57:07.088Z,38.23
2018-11-02T09:59:34.903Z,39.83
2018-11-02T10:02:02.804Z,34.30
2018-11-02T10:04:30.673Z,39.07
2018-11-02T10:06:58.555Z,44.27
2018-11-02T10:09:26.343Z,40.90
2018-11-02T10:11:54.154Z,40.90
2018-11-02T10:14:22.007Z,43.67
2018-11-02T10:16:49.731Z,40.87
2018-11-02T10:19:17.507Z,41.20
2018-11-02T10:21:45.255Z,37.37
2018-11-02T10:24:13.027Z,40.30
2018-11-02T10:26:40.907Z,43.30
2018-11-02T10:29:08.755Z,34.40
2018-11-02T10:31:36.631Z,37.47
2018-11-02T10:34:04.630Z,35.87
2018-11-02T10:36:33.068Z,36.10
2018-11-02T10:39:01.093Z,36.73
2018-11-02T10:41:32.803Z,34.33
2018-11-02T10:44:00.799Z,33.70
2018-11-02T10:46:28.659Z,31.77
2018-11-02T10:48:56.420Z,31.90
2018-11-02T10:51:24.200Z,30.60
2018-11-02T10:53:51.947Z,34.87
2018-11-02T10:56:19.970Z,32.03
2018-11-02T10:58:47.765Z,30.93
2018-11-02T11:01:21.202Z,31.40
2018-11-02T11:03:48.952Z,30.67
2018-11-02T11:06:16.768Z,33.27
2018-11-02T11:08:44.719Z,29.13
2018-11-02T11:11:12.574Z,26.33
2018-11-02T11:13:40.764Z,29.70
2018-11-02T11:16:08.274Z,30.10
2018-11-02T11:18:36.067Z,30.37
2018-11-02T11:21:03.900Z,33.23
2018-11-02T11:23:31.788Z,31.53
2018-11-02T11:25:59.582Z,30.13
2018-11-02T11:28:27.390Z,30.30
2018-11-02T11:30:55.246Z,31.73
2018-11-02T11:33:23.029Z,33.23
2018-11-02T11:35:50.814Z,33.77
2018-11-02T11:38:18.691Z,32.93
2018-11-02T11:40:46.488Z,32.13
2018-11-02T11:43:14.275Z,30.13
2018-11-02T11:45:42.134Z,31.73
2018-11-02T11:48:09.979Z,31.83
2018-11-02T11:50:37.776Z,27.43
2018-11-02T11:53:05.620Z,31.07
2018-11-02T11:55:33.435Z,30.90
2018-11-02T11:58:01.281Z,29.50
2018-11-02T12:00:29.127Z,31.40
2018-11-02T12:02:56.969Z,31.40
2018-11-02T12:05:24.771Z,30.07
2018-11-02T12:07:52.594Z,29.87
2018-11-02T12:10:23.229Z,31.87
2018-11-02T12:12:51.222Z,30.60
2018-11-02T12:15:20.863Z,30.03
2018-11-02T12:17:48.933Z,30.47
2018-11-02T12:20:18.310Z,29.97
2018-11-02T12:22:46.783Z,33.03
2018-11-02T12:25:14.876Z,27.03
2018-11-02T12:27:42.723Z,28.10
2018-11-02T12:30:12.811Z,29.87
2018-11-02T12:32:40.595Z,27.43
2018-11-02T12:35:10.064Z,26.40
2018-11-02T12:37:37.891Z,28.07
2018-11-02T12:40:07.732Z,27.00
2018-11-02T12:42:35.875Z,32.43
2018-11-02T12:45:03.689Z,29.60
2018-11-02T12:47:31.544Z,28.63
2018-11-02T12:49:59.295Z,30.40
2018-11-02T12:52:27.122Z,28.80
2018-11-02T12:54:54.875Z,30.17
2018-11-02T12:57:22.615Z,28.20
2018-11-02T12:59:50.420Z,31.00
2018-11-02T13:02:18.243Z,31.27
2018-11-02T13:04:46.063Z,29.50
2018-11-02T13:07:13.917Z,27.83
2018-11-02T13:09:41.814Z,35.83
2018-11-02T13:12:09.503Z,31.57
2018-11-02T13:14:37.412Z,33.03
2018-11-02T13:17:05.276Z,32.47
2018-11-02T13:19:33.046Z,31.60
2018-11-02T13:22:00.931Z,36.50
2018-11-02T13:24:28.546Z,35.53
2018-11-02T13:26:56.424Z,33.77
2018-11-02T13:29:24.216Z,33.30
2018-11-02T13:31:52.044Z,33.40
2018-11-02T13:34:20.647Z,31.40
2018-11-02T13:36:48.522Z,31.30
2018-11-02T13:39:16.290Z,32.37
2018-11-02T13:41:44.088Z,32.70
2018-11-02T13:44:11.908Z,37.60
2018-11-02T13:46:39.679Z,37.40
2018-11-02T13:49:08.399Z,35.53
2018-11-02T13:51:36.215Z,34.10
2018-11-02T13:54:04.065Z,34.00
2018-11-02T13:56:31.828Z,36.50
2018-11-02T13:58:59.636Z,29.50
2018-11-02T14:01:27.475Z,32.07
2018-11-02T14:03:55.202Z,32.17
2018-11-02T14:06:23.030Z,31.80
2018-11-02T14:08:50.819Z,29.30
2018-11-02T14:11:18.603Z,29.13
2018-11-02T14:13:46.348Z,27.23
2018-11-02T14:16:14.135Z,32.40
2018-11-02T14:18:41.980Z,29.80
2018-11-02T14:21:09.743Z,30.37
2018-11-02T14:23:37.434Z,31.50
2018-11-02T14:26:05.742Z,29.70
2018-11-02T14:28:33.574Z,29.47
2018-11-02T14:31:01.344Z,28.30
2018-11-02T14:33:29.157Z,31.60
2018-11-02T14:35:56.956Z,32.80
2018-11-02T14:38:24.718Z,35.00
2018-11-02T14:40:52.523Z,30.20
2018-11-02T14:43:20.299Z,33.27
2018-11-02T14:45:48.063Z,29.93
2018-11-02T14:48:15.847Z,33.23
2018-11-02T14:50:43.640Z,37.40
2018-11-02T14:53:11.401Z,32.87
2018-11-02T14:55:39.232Z,29.63
2018-11-02T14:58:07.336Z,32.93
2018-11-02T15:00:35.129Z,35.00
2018-11-02T15:03:02.928Z,34.07
2018-11-02T15:05:30.726Z,36.73
2018-11-02T15:07:58.479Z,40.80
2018-11-02T15:10:26.335Z,44.07
2018-11-02T15:12:54.099Z,41.70
2018-11-02T15:15:21.948Z,42.73
2018-11-02T15:17:49.745Z,43.03
2018-11-02T15:20:17.570Z,43.87
2018-11-02T15:22:45.327Z,47.37
2018-11-02T15:25:13.032Z,44.17
2018-11-02T15:27:40.824Z,45.77
2018-11-02T15:30:10.619Z,43.13
2018-11-02T15:32:38.477Z,45.93
2018-11-02T15:35:07.064Z,47.80
2018-11-02T15:37:34.856Z,50.83
2018-11-02T15:40:02.655Z,50.77
2018-11-02T15:42:30.476Z,46.97
2018-11-02T15:44:58.172Z,48.27
2018-11-02T15:47:25.867Z,48.13
2018-11-02T15:49:53.671Z,51.10
2018-11-02T15:52:21.435Z,51.77
2018-11-02T15:54:49.187Z,52.00
2018-11-02T15:57:16.999Z,48.73
2018-11-02T15:59:44.751Z,51.50
2018-11-02T16:02:12.554Z,50.37
2018-11-02T16:04:40.411Z,48.00
2018-11-02T16:07:08.235Z,49.53
2018-11-02T16:09:35.952Z,52.93
2018-11-02T16:12:04.002Z,48.80
2018-11-02T16:14:31.787Z,50.43
2018-11-02T16:16:59.635Z,49.60
2018-11-02T16:19:27.375Z,46.90
2018-11-02T16:21:55.233Z,48.57
2018-11-02T16:24:23.029Z,46.53
2018-11-02T16:26:50.887Z,51.97
2018-11-02T16:29:18.663Z,49.87
2018-11-02T16:31:46.449Z,52.03
2018-11-02T16:34:14.771Z,51.47
2018-11-02T16:36:42.527Z,51.13
2018-11-02T16:39:11.535Z,53.47
2018-11-02T16:41:40.187Z,57.80
2018-11-02T16:44:08.383Z,51.73
2018-11-02T16:46:36.156Z,63.43
2018-11-02T16:49:04.023Z,56.67
2018-11-02T16:51:31.776Z,56.00
2018-11-02T16:53:59.651Z,55.97
2018-11-02T16:56:27.509Z,50.60
2018-11-02T16:58:55.286Z,50.97
2018-11-02T17:01:23.093Z,49.13
2018-11-02T17:03:50.907Z,53.33
2018-11-02T17:06:18.707Z,54.23
2018-11-02T17:08:46.474Z,55.53
2018-11-02T17:11:14.271Z,52.83
2018-11-02T17:13:42.064Z,51.17
2018-11-02T17:16:09.793Z,53.47
2018-11-02T17:18:37.554Z,57.07
2018-11-02T17:21:05.595Z,58.93
2018-11-02T17:23:33.367Z,52.13
2018-11-02T17:26:01.189Z,53.73
2018-11-02T17:28:29.133Z,55.80
2018-11-02T17:30:56.848Z,57.37
2018-11-02T17:33:24.593Z,54.43
2018-11-02T17:35:52.391Z,56.53
2018-11-02T17:38:20.299Z,57.73
2018-11-02T17:40:48.074Z,56.83
2018-11-02T17:43:15.831Z,50.37
2018-11-02T17:45:43.648Z,49.80
2018-11-02T17:48:11.479Z,54.80
2018-11-02T17:50:39.207Z,50.07
2018-11-02T17:53:07.082Z,50.63
2018-11-02T17:55:34.807Z,51.33
2018-11-02T17:58:02.559Z,47.47
2018-11-02T18:00:30.390Z,49.77
2018-11-02T18:02:58.191Z,50.93
2018-11-02T18:05:25.902Z,46.90
2018-11-02T18:07:53.711Z,51.17
2018-11-02T18:10:21.514Z,47.63
2018-11-02T18:12:49.255Z,51.53
2018-11-02T18:15:17.040Z,61.87
2018-11-02T18:17:44.860Z,53.17
2018-11-02T18:20:14.285Z,52.63
2018-11-02T18:22:42.327Z,57.07
2018-11-02T18:25:10.388Z,47.53
2018-11-02T18:27:38.100Z,46.07
2018-11-02T18:30:06.995Z,45.73
2018-11-02T18:32:34.876Z,52.80
2018-11-02T18:35:02.867Z,49.43
2018-11-02T18:37:30.483Z,53.47
2018-11-02T18:39:58.312Z,51.07
2018-11-02T18:42:26.183Z,48.57
2018-11-02T18:44:53.927Z,46.27
2018-11-02T18:47:21.849Z,49.07
2018-11-02T18:49:49.581Z,47.50
2018-11-02T18:52:17.334Z,50.90
2018-11-02T18:54:45.135Z,47.20
2018-11-02T18:57:12.847Z,50.43
2018-11-02T18:59:40.663Z,43.33
2018-11-02T19:02:08.536Z,42.03
2018-11-02T19:04:36.403Z,46.77
2018-11-02T19:07:04.277Z,45.03
2018-11-02T19:09:32.041Z,48.93
2018-11-02T19:11:59.825Z,55.40
2018-11-02T19:14:27.575Z,53.53
2018-11-02T19:16:55.315Z,58.53
2018-11-02T19:19:23.143Z,55.70
2018-11-02T19:21:50.896Z,49.47
2018-11-02T19:24:18.688Z,59.23
2018-11-02T19:26:46.543Z,55.93
2018-11-02T19:29:14.447Z,46.70
2018-11-02T19:31:42.322Z,53.13
2018-11-02T19:34:10.160Z,55.03
2018-11-02T19:36:38.449Z,58.47
2018-11-02T19:39:09.945Z,50.90
2018-11-02T19:41:39.295Z,56.27
2018-11-02T19:44:07.161Z,55.53
2018-11-02T19:46:34.935Z,59.57
2018-11-02T19:49:02.824Z,53.07
2018-11-02T19:51:30.595Z,53.27
2018-11-02T19:53:58.459Z,56.47
2018-11-02T19:56:26.196Z,60.10
2018-11-02T19:58:53.963Z,55.70
2018-11-02T20:01:21.723Z,57.93
2018-11-02T20:03:49.518Z,54.97
2018-11-02T20:06:17.240Z,55.83
2018-11-02T20:08:45.043Z,52.93
2018-11-02T20:11:12.811Z,54.90
2018-11-02T20:13:41.034Z,79.83
2018-11-02T20:16:09.142Z,62.03
2018-11-02T20:18:37.624Z,52.63
2018-11-02T20:21:05.995Z,50.73
2018-11-02T20:23:34.630Z,53.00
2018-11-02T20:26:03.117Z,54.23
2018-11-02T20:28:31.396Z,58.13
2018-11-02T20:30:59.643Z,56.97
2018-11-02T20:33:27.908Z,55.03
2018-11-02T20:35:56.212Z,52.00
2018-11-02T20:38:24.716Z,60.53
2018-11-02T20:40:52.739Z,55.70
2018-11-02T20:43:21.241Z,54.30
2018-11-02T20:45:49.525Z,50.83
2018-11-02T20:48:17.759Z,51.20
2018-11-02T20:50:46.070Z,54.00
2018-11-02T20:53:13.879Z,51.80
2018-11-02T20:55:41.638Z,56.80
2018-11-02T20:58:09.471Z,56.57
2018-11-02T21:00:37.268Z,56.63
2018-11-02T21:03:05.672Z,59.77
2018-11-02T21:05:34.114Z,60.47
2018-11-02T21:08:02.487Z,57.57
2018-11-02T21:10:30.811Z,61.27
2018-11-02T21:12:59.062Z,65.60
2018-11-02T21:15:27.535Z,57.97
2018-11-02T21:17:55.336Z,56.13
2018-11-02T21:20:24.514Z,70.20
2018-11-02T21:22:52.908Z,72.33
2018-11-02T21:25:21.120Z,70.70
2018-11-02T21:27:49.647Z,71.57
2018-11-02T21:30:25.303Z,61.67
2018-11-02T21:32:54.179Z,73.33
2018-11-02T21:35:22.968Z,62.20
2018-11-02T21:37:51.593Z,68.67
2018-11-02T21:40:20.999Z,65.47
2018-11-02T21:42:49.192Z,74.37
2018-11-02T21:45:18.651Z,83.23
2018-11-02T21:47:47.050Z,77.63
2018-11-02T21:50:15.691Z,72.20
2018-11-02T21:52:44.234Z,74.90
2018-11-02T21:55:12.589Z,72.27
2018-11-02T21:57:41.036Z,77.83
2018-11-02T22:00:13.563Z,78.20
2018-11-02T22:02:41.974Z,63.03
2018-11-02T22:05:11.595Z,63.40
2018-11-02T22:07:40.071Z,66.23
2018-11-02T22:10:08.862Z,72.27
2018-11-02T22:12:37.579Z,77.40
2018-11-02T22:15:06.090Z,82.83
2018-11-02T22:17:34.280Z,75.70
2018-11-02T22:20:02.706Z,82.93
2018-11-02T22:22:31.097Z,81.80
2018-11-02T22:24:59.559Z,87.17
2018-11-02T22:27:28.241Z,82.97
2018-11-02T22:29:56.605Z,78.37
2018-11-02T22:32:25.024Z,93.37
2018-11-02T22:34:53.144Z,90.67
2018-11-02T22:37:21.604Z,77.97
2018-11-02T22:39:49.844Z,85.27
2018-11-02T22:42:18.179Z,81.63
2018-11-02T22:44:46.429Z,81.20
2018-11-02T22:47:14.600Z,76.13
2018-11-02T22:49:42.725Z,77.87
2018-11-02T22:52:11.126Z,78.77
2018-11-02T22:54:39.511Z,84.57
2018-11-02T22:57:07.655Z,76.93
2018-11-02T22:59:35.885Z,64.67
2018-11-02T23:02:04.336Z,81.00
2018-11-02T23:04:32.809Z,91.83
2018-11-02T23:07:02.959Z,97.84
2018-11-02T23:09:31.351Z,77.90
2018-11-02T23:11:59.703Z,90.27
2018-11-02T23:14:28.180Z,87.67
2018-11-02T23:16:56.583Z,91.00
2018-11-02T23:19:25.142Z,110.57
2018-11-02T23:21:53.255Z,99.87
2018-11-02T23:24:21.558Z,105.13
2018-11-02T23:26:49.760Z,91.17
2018-11-02T23:29:18.285Z,96.03
2018-11-02T23:31:46.499Z,94.30
2018-11-02T23:34:15.055Z,89.97
2018-11-02T23:36:43.755Z,93.45
2018-11-02T23:39:12.140Z,94.20
2018-11-02T23:41:40.403Z,95.73
2018-11-02T23:44:08.722Z,87.50
2018-11-02T23:46:36.771Z,83.67
2018-11-02T23:49:05.339Z,90.80
2018-11-02T23:51:33.590Z,76.53
2018-11-02T23:54:01.784Z,84.73
2018-11-02T23:56:30.051Z,85.03
2018-11-02T23:58:58.382Z,78.87
